Time;durP1;ratioP1;P1;durP2;ratioP2;P2;SDS_P1;SDS_P2;PMS_P1;PMS_P2;Temp;Humidity;BMP_temperature;BMP_pressure;BME280_temperature;BME280_humidity;BME280_pressure;Samples;Min_cycle;Max_cycle;Signal;HPM_P1;HPM_P2
2024/03/16 05:05:36;;;;;;;0.30;0.30;;;10.40;99.90;;;;;;5912488;23;21281;-63
2024/03/16 05:08:02;;;;;;;0.30;0.30;;;10.30;99.90;;;;;;4923285;29;20195;-62
2024/03/16 05:10:27;;;;;;;0.30;0.30;;;10.30;99.90;;;;;;4919792;29;20182;-61
2024/03/16 05:12:53;;;;;;;0.30;0.30;;;10.30;99.90;;;;;;4919691;29;20214;-60
2024/03/16 05:15:18;;;;;;;0.30;0.30;;;10.30;99.90;;;;;;4919054;29;20235;-61
2024/03/16 05:17:44;;;;;;;0.30;0.30;;;10.30;99.90;;;;;;4919669;29;20268;-61
2024/03/16 05:20:10;;;;;;;0.30;0.30;;;10.20;99.90;;;;;;4919362;29;20202;-61
2024/03/16 05:22:35;;;;;;;0.40;0.40;;;10.20;99.90;;;;;;4919611;29;20175;-61
2024/03/16 05:25:01;;;;;;;0.30;0.30;;;10.20;99.90;;;;;;4919084;29;20178;-61
2024/03/16 05:27:27;;;;;;;0.30;0.30;;;10.20;99.90;;;;;;4918498;29;20207;-61
2024/03/16 05:29:53;;;;;;;0.30;0.30;;;10.20;99.90;;;;;;4918913;29;20180;-61
2024/03/16 05:32:18;;;;;;;0.40;0.40;;;10.10;99.90;;;;;;4919142;29;20217;-61
2024/03/16 05:34:44;;;;;;;0.30;0.30;;;10.10;99.90;;;;;;4918756;29;20201;-60
2024/03/16 05:37:09;;;;;;;0.30;0.30;;;10.10;99.90;;;;;;4918604;29;20202;-61
2024/03/16 05:39:35;;;;;;;0.30;0.30;;;10.10;99.90;;;;;;4919130;29;20190;-61
2024/03/16 05:42:00;;;;;;;0.30;0.30;;;10.10;99.90;;;;;;4919136;29;20195;-60
2024/03/16 05:44:26;;;;;;;0.40;0.40;;;10.10;99.90;;;;;;4919131;29;20253;-61
2024/03/16 05:46:52;;;;;;;0.30;0.30;;;10.10;99.90;;;;;;4918610;29;20740;-61
2024/03/16 05:49:18;;;;;;;0.30;0.30;;;10.10;99.90;;;;;;4918990;29;20206;-60
2024/03/16 05:51:44;;;;;;;0.30;0.30;;;10.10;99.90;;;;;;4917848;29;20569;-61
2024/03/16 05:54:09;;;;;;;0.30;0.30;;;10.10;99.90;;;;;;4918858;29;20179;-60
2024/03/16 05:56:37;;;;;;;0.30;0.30;;;10.10;99.90;;;;;;4918614;29;20285;-61
2024/03/16 05:59:02;;;;;;;0.30;0.30;;;10.10;99.90;;;;;;4919072;29;20212;-61
2024/03/16 06:01:28;;;;;;;0.30;0.20;;;10.10;99.90;;;;;;4918775;29;20182;-61
2024/03/16 06:03:55;;;;;;;0.30;0.30;;;10.10;99.90;;;;;;4918741;29;20172;-61
2024/03/16 06:06:21;;;;;;;0.30;0.30;;;10.10;99.90;;;;;;4918275;29;20446;-61
2024/03/16 06:08:48;;;;;;;0.30;0.30;;;10.20;99.90;;;;;;4918555;29;20452;-61
2024/03/16 06:11:13;;;;;;;0.30;0.30;;;10.30;99.90;;;;;;4918505;29;20462;-61
2024/03/16 06:13:39;;;;;;;0.30;0.30;;;10.30;99.90;;;;;;4918592;29;20494;-62
2024/03/16 06:16:05;;;;;;;0.30;0.30;;;10.30;99.90;;;;;;4918070;29;20196;-61
2024/03/16 06:18:31;;;;;;;0.30;0.30;;;10.40;99.90;;;;;;4918077;29;20189;-61
2024/03/16 06:20:56;;;;;;;0.30;0.30;;;10.50;99.90;;;;;;4918351;29;20765;-61
2024/03/16 06:23:22;;;;;;;0.30;0.30;;;10.60;99.90;;;;;;4918115;29;20171;-62
2024/03/16 06:25:49;;;;;;;0.30;0.20;;;10.70;99.90;;;;;;4917496;29;20196;-62
2024/03/16 06:28:21;;;;;;;0.30;0.30;;;10.80;99.90;;;;;;4918065;29;20199;-62
2024/03/16 06:30:55;;;;;;;0.30;0.30;;;10.80;99.90;;;;;;4918097;29;20418;-63
2024/03/16 06:33:27;;;;;;;0.40;0.40;;;10.90;99.90;;;;;;4918225;29;20389;-60
2024/03/16 06:35:56;;;;;;;0.30;0.30;;;11.00;99.90;;;;;;4917525;29;20433;-62
2024/03/16 06:38:22;;;;;;;0.40;0.40;;;11.00;99.90;;;;;;4917715;29;20508;-61
2024/03/16 06:40:49;;;;;;;0.30;0.30;;;11.10;99.90;;;;;;4931697;29;20508;-61
2024/03/16 06:43:15;;;;;;;0.30;0.30;;;11.10;99.90;;;;;;4917971;29;20800;-63
2024/03/16 06:45:41;;;;;;;0.30;0.30;;;11.20;99.90;;;;;;4917214;29;20438;-62
2024/03/16 06:48:07;;;;;;;0.30;0.30;;;11.30;99.90;;;;;;4916715;29;20260;-62
2024/03/16 06:50:33;;;;;;;0.30;0.30;;;11.30;99.90;;;;;;4917655;29;20400;-62
2024/03/16 06:52:59;;;;;;;0.30;0.30;;;11.40;99.90;;;;;;4917848;29;20220;-62
2024/03/16 06:55:25;;;;;;;0.30;0.30;;;11.50;99.90;;;;;;4917216;29;20182;-62
2024/03/16 06:57:50;;;;;;;0.40;0.40;;;11.50;99.90;;;;;;4917433;29;20910;-61
2024/03/16 07:00:17;;;;;;;0.30;0.30;;;11.50;99.90;;;;;;4917353;29;20182;-62
2024/03/16 07:02:43;;;;;;;0.30;0.30;;;11.60;99.90;;;;;;4917572;29;20193;-62
2024/03/16 07:05:09;;;;;;;0.30;0.30;;;11.70;99.90;;;;;;4917376;29;20448;-61
2024/03/16 07:07:35;;;;;;;0.30;0.30;;;11.70;99.90;;;;;;4917338;29;20469;-61
2024/03/16 07:10:00;;;;;;;0.30;0.30;;;11.70;99.90;;;;;;4917532;29;20395;-61
2024/03/16 07:12:26;;;;;;;0.30;0.30;;;11.70;99.90;;;;;;4917367;29;20672;-62
2024/03/16 07:14:51;;;;;;;0.30;0.30;;;11.70;99.90;;;;;;4916926;29;20177;-62
2024/03/16 07:17:17;;;;;;;0.30;0.30;;;11.70;99.90;;;;;;4916995;29;20268;-61
2024/03/16 07:19:43;;;;;;;0.30;0.30;;;11.60;99.90;;;;;;4916805;29;20265;-61
2024/03/16 07:22:09;;;;;;;0.40;0.40;;;11.60;99.90;;;;;;4917087;29;20193;-61
2024/03/16 07:24:34;;;;;;;0.30;0.30;;;11.50;99.90;;;;;;4916790;29;20395;-61
2024/03/16 07:27:00;;;;;;;0.33;0.33;;;11.40;99.90;;;;;;4917059;29;20291;-61
2024/03/16 07:29:26;;;;;;;0.30;0.30;;;11.40;99.90;;;;;;4916959;29;20639;-62
2024/03/16 07:31:51;;;;;;;0.30;0.30;;;11.40;99.90;;;;;;4917149;29;20220;-61
2024/03/16 07:34:17;;;;;;;0.30;0.30;;;11.50;99.90;;;;;;4916974;29;20181;-61
2024/03/16 07:36:42;;;;;;;0.30;0.30;;;11.50;99.90;;;;;;4916430;29;20205;-61
2024/03/16 07:39:08;;;;;;;0.30;0.30;;;11.50;99.90;;;;;;4915841;29;20209;-62
2024/03/16 07:41:37;;;;;;;0.30;0.30;;;11.50;99.90;;;;;;4916906;29;20608;-62
2024/03/16 07:44:02;;;;;;;0.40;0.40;;;11.50;99.90;;;;;;4915587;29;20671;-61
2024/03/16 07:46:28;;;;;;;0.40;0.40;;;11.60;99.90;;;;;;4916533;29;20424;-63
2024/03/16 07:48:56;;;;;;;0.30;0.30;;;11.70;99.90;;;;;;4916563;29;20429;-61
2024/03/16 07:51:28;;;;;;;0.30;0.30;;;11.80;99.90;;;;;;4915998;29;20487;-61
2024/03/16 07:53:55;;;;;;;0.30;0.30;;;11.80;99.90;;;;;;4916588;29;20406;-61
2024/03/16 07:56:20;;;;;;;0.40;0.40;;;11.80;99.90;;;;;;4916353;29;20436;-61
2024/03/16 07:58:46;;;;;;;0.30;0.30;;;11.80;99.90;;;;;;4917017;29;20405;-62
2024/03/16 08:01:12;;;;;;;0.30;0.30;;;11.80;99.90;;;;;;4917014;29;20573;-61
2024/03/16 08:03:38;;;;;;;0.30;0.30;;;11.60;99.90;;;;;;4916821;29;20181;-64
2024/03/16 08:06:07;;;;;;;0.30;0.30;;;11.60;99.90;;;;;;4916512;29;20463;-62
2024/03/16 08:08:36;;;;;;;0.30;0.30;;;11.60;99.90;;;;;;4917076;29;20532;-65
2024/03/16 08:11:03;;;;;;;0.30;0.30;;;11.60;99.90;;;;;;4917077;29;20781;-63
2024/03/16 08:13:30;;;;;;;0.30;0.30;;;11.60;99.90;;;;;;4917507;29;20784;-62
2024/03/16 08:15:56;;;;;;;0.30;0.30;;;11.70;99.90;;;;;;4917361;29;20449;-64
2024/03/16 08:18:21;;;;;;;0.30;0.30;;;11.70;99.90;;;;;;4918835;29;20407;-65
2024/03/16 08:20:47;;;;;;;0.30;0.30;;;11.90;99.90;;;;;;4922466;29;20294;-60
2024/03/16 08:23:13;;;;;;;0.40;0.40;;;12.00;99.90;;;;;;4923616;29;20184;-63
2024/03/16 08:25:41;;;;;;;0.33;0.33;;;12.10;99.90;;;;;;4921449;29;20201;-62
2024/03/16 08:28:06;;;;;;;0.30;0.30;;;12.30;99.90;;;;;;4916821;29;20178;-62
2024/03/16 08:30:32;;;;;;;0.83;0.83;;;12.40;99.90;;;;;;4916969;29;20478;-63
2024/03/16 08:32:58;;;;;;;0.30;0.30;;;12.50;99.90;;;;;;4917111;29;20206;-63
2024/03/16 08:35:23;;;;;;;0.30;0.30;;;12.60;99.90;;;;;;4916726;29;20426;-62
2024/03/16 08:37:49;;;;;;;0.30;0.30;;;12.70;99.90;;;;;;4919430;29;20217;-62
2024/03/16 08:40:15;;;;;;;0.30;0.20;;;12.70;99.90;;;;;;4920532;29;20175;-60
2024/03/16 08:42:41;;;;;;;0.30;0.30;;;12.80;99.90;;;;;;4919286;29;20186;-63
2024/03/16 08:45:07;;;;;;;0.30;0.30;;;12.90;99.90;;;;;;4920509;29;20431;-64
2024/03/16 08:47:36;;;;;;;0.40;0.37;;;13.00;99.90;;;;;;4919132;29;20198;-62
2024/03/16 08:50:04;;;;;;;0.93;0.50;;;13.10;99.90;;;;;;4917158;29;20418;-62
2024/03/16 08:52:30;;;;;;;0.30;0.30;;;13.20;99.90;;;;;;4916556;29;20436;-63
2024/03/16 08:54:56;;;;;;;0.30;0.30;;;13.40;99.90;;;;;;4915965;29;20396;-66
2024/03/16 08:57:25;;;;;;;0.30;0.20;;;13.50;99.90;;;;;;4915855;29;20503;-63
2024/03/16 08:59:51;;;;;;;0.30;0.30;;;13.60;99.90;;;;;;4917148;29;20187;-63
2024/03/16 09:02:20;;;;;;;0.30;0.30;;;13.70;99.90;;;;;;4917820;29;20478;-62
2024/03/16 09:04:47;;;;;;;0.30;0.20;;;13.90;99.90;;;;;;4919689;29;20424;-62
2024/03/16 09:07:13;;;;;;;0.40;0.40;;;14.20;99.90;;;;;;4919930;29;20825;-63
2024/03/16 09:09:38;;;;;;;0.30;0.27;;;14.50;99.90;;;;;;4919770;29;20940;-62
2024/03/16 09:12:05;;;;;;;0.30;0.30;;;14.80;99.90;;;;;;4919808;29;20501;-62
2024/03/16 09:14:35;;;;;;;0.30;0.30;;;14.90;99.90;;;;;;4919004;29;20238;-64
2024/03/16 09:17:01;;;;;;;0.30;0.30;;;15.00;99.90;;;;;;4919088;29;20442;-60
2024/03/16 09:19:27;;;;;;;0.30;0.30;;;14.90;99.90;;;;;;4919123;29;20429;-62
2024/03/16 09:21:52;;;;;;;0.30;0.30;;;14.80;99.90;;;;;;4919368;29;20960;-62
2024/03/16 09:24:19;;;;;;;0.30;0.27;;;14.80;99.90;;;;;;4919454;29;20183;-64
2024/03/16 09:26:44;;;;;;;0.30;0.30;;;14.80;99.90;;;;;;4919043;29;20202;-65
2024/03/16 09:29:10;;;;;;;0.30;0.30;;;14.90;99.90;;;;;;4919319;29;20426;-61
2024/03/16 09:31:36;;;;;;;0.30;0.23;;;14.90;99.90;;;;;;4919277;29;20357;-61
2024/03/16 09:34:03;;;;;;;0.30;0.30;;;14.90;99.90;;;;;;4919434;29;20185;-64
2024/03/16 09:36:29;;;;;;;0.30;0.30;;;15.00;99.90;;;;;;4918606;29;20572;-62
2024/03/16 09:38:55;;;;;;;0.30;0.30;;;15.00;99.90;;;;;;4918825;29;20403;-63
2024/03/16 09:41:21;;;;;;;0.30;0.30;;;15.10;99.90;;;;;;4919125;29;20186;-62
2024/03/16 09:43:47;;;;;;;0.30;0.20;;;15.30;99.90;;;;;;4918879;29;20474;-64
2024/03/16 09:46:14;;;;;;;0.30;0.30;;;15.40;99.90;;;;;;4918515;29;20896;-63
2024/03/16 09:48:40;;;;;;;0.30;0.30;;;15.50;99.90;;;;;;4918976;29;20426;-63
2024/03/16 09:51:09;;;;;;;0.30;0.30;;;15.70;99.90;;;;;;4918616;29;20425;-64
2024/03/16 09:53:35;;;;;;;0.30;0.20;;;16.20;99.90;;;;;;4918583;29;20422;-60
2024/03/16 09:56:09;;;;;;;0.30;0.20;;;16.90;99.90;;;;;;4918243;29;20420;-61
2024/03/16 09:58:36;;;;;;;0.30;0.30;;;17.80;99.90;;;;;;4918616;29;20189;-65
2024/03/16 10:01:03;;;;;;;0.30;0.30;;;18.30;99.90;;;;;;4918515;29;20428;-62
2024/03/16 10:03:33;;;;;;;0.30;0.30;;;18.40;99.90;;;;;;4918631;29;20447;-66
2024/03/16 10:06:04;;;;;;;0.30;0.20;;;18.20;99.90;;;;;;4918326;29;20464;-61
2024/03/16 10:08:30;;;;;;;0.30;0.20;;;17.90;99.90;;;;;;4918420;29;20845;-62
2024/03/16 10:11:15;;;;;;;0.30;0.30;;;17.90;99.90;;;;;;4918554;29;20416;-62
2024/03/16 10:13:58;;;;;;;0.30;0.20;;;18.00;99.90;;;;;;4917986;29;20414;-62
2024/03/16 10:16:24;;;;;;;0.30;0.30;;;18.00;99.90;;;;;;4917971;29;20504;-62
2024/03/16 10:18:53;;;;;;;0.30;0.30;;;17.60;99.90;;;;;;4918282;29;20422;-65
2024/03/16 10:21:18;;;;;;;0.30;0.20;;;17.30;99.90;;;;;;4918331;29;20442;-64
2024/03/16 10:23:45;;;;;;;0.40;0.40;;;16.70;99.90;;;;;;4918239;29;20429;-71
2024/03/16 10:26:13;;;;;;;0.30;0.30;;;16.30;99.90;;;;;;4917520;29;20736;-67
2024/03/16 10:28:41;;;;;;;0.30;0.30;;;16.00;99.90;;;;;;4918048;29;20506;-67
2024/03/16 10:31:09;;;;;;;0.30;0.20;;;15.70;99.90;;;;;;4918273;29;20925;-68
2024/03/16 10:33:38;;;;;;;0.30;0.20;;;15.50;99.90;;;;;;4916793;29;20474;-67
2024/03/16 10:36:04;;;;;;;0.30;0.30;;;15.50;99.90;;;;;;4917694;29;20439;-65
2024/03/16 10:38:31;;;;;;;0.30;0.30;;;15.60;99.90;;;;;;4917984;29;20422;-66
2024/03/16 10:41:04;;;;;;;0.30;0.30;;;15.90;99.90;;;;;;4916427;29;20460;-66
2024/03/16 10:43:31;;;;;;;0.30;0.30;;;16.50;99.90;;;;;;4918171;29;20437;-69
2024/03/16 10:45:58;;;;;;;0.30;0.20;;;17.20;99.90;;;;;;4917492;29;20434;-67
2024/03/16 10:48:23;;;;;;;0.30;0.30;;;17.70;99.90;;;;;;4918057;29;20485;-67
2024/03/16 10:50:51;;;;;;;0.50;0.47;;;18.10;99.90;;;;;;4917381;29;20418;-65
2024/03/16 10:53:18;;;;;;;0.30;0.30;;;18.20;99.90;;;;;;4917953;29;20708;-66
2024/03/16 10:55:49;;;;;;;0.30;0.20;;;18.00;99.90;;;;;;4900372;29;20422;-64
2024/03/16 10:58:22;;;;;;;0.30;0.30;;;17.70;99.90;;;;;;4898811;29;20410;-69
2024/03/16 11:00:49;;;;;;;0.30;0.30;;;17.50;99.90;;;;;;4898551;29;20419;-65
2024/03/16 11:03:27;;;;;;;0.30;0.20;;;17.10;99.90;;;;;;4898498;29;20759;-66
2024/03/16 11:06:09;;;;;;;0.30;0.30;;;16.90;99.90;;;;;;4897991;29;20969;-68
2024/03/16 11:08:42;;;;;;;0.30;0.20;;;17.00;99.90;;;;;;4898609;29;20449;-68
2024/03/16 11:11:08;;;;;;;0.30;0.30;;;17.10;99.90;;;;;;4898491;29;20419;-66
2024/03/16 11:13:35;;;;;;;0.30;0.30;;;17.10;99.90;;;;;;4897209;29;20424;-66
2024/03/16 11:16:27;;;;;;;0.50;0.50;;;17.00;99.90;;;;;;4897975;29;20840;-66
2024/03/16 11:18:58;;;;;;;0.40;0.40;;;17.10;99.90;;;;;;4898462;29;20770;-68
2024/03/16 11:21:26;;;;;;;0.30;0.30;;;17.10;99.90;;;;;;4898406;29;20404;-68
2024/03/16 11:23:53;;;;;;;0.30;0.30;;;17.00;99.90;;;;;;4898241;29;20486;-67
2024/03/16 11:26:28;;;;;;;0.30;0.30;;;17.10;99.90;;;;;;4897113;29;20431;-65
2024/03/16 11:29:25;;;;;;;0.30;0.20;;;17.10;99.90;;;;;;4898145;29;20493;-68
2024/03/16 11:31:53;;;;;;;0.30;0.30;;;17.20;99.90;;;;;;4901196;29;20984;-65
2024/03/16 11:34:22;;;;;;;0.37;0.37;;;17.40;99.90;;;;;;4898417;29;20416;-65
2024/03/16 11:36:50;;;;;;;0.30;0.30;;;17.60;99.90;;;;;;4897838;29;20471;-64
2024/03/16 11:39:24;;;;;;;0.30;0.30;;;17.80;99.90;;;;;;4898358;29;20742;-67
2024/03/16 11:41:50;;;;;;;0.30;0.30;;;17.90;99.90;;;;;;4898389;29;20419;-68
2024/03/16 11:44:16;;;;;;;0.30;0.30;;;17.70;99.90;;;;;;4898071;29;20415;-67
2024/03/16 11:46:46;;;;;;;0.30;0.30;;;17.50;99.90;;;;;;4897924;29;20439;-69
2024/03/16 11:49:16;;;;;;;0.30;0.30;;;17.30;99.90;;;;;;4898125;29;20792;-70
2024/03/16 11:51:42;;;;;;;0.30;0.20;;;17.10;99.90;;;;;;4897702;29;20506;-66
2024/03/16 11:54:08;;;;;;;0.30;0.20;;;17.00;99.90;;;;;;4897816;29;20766;-65
2024/03/16 11:56:37;;;;;;;0.30;0.30;;;17.00;99.90;;;;;;4897381;29;20406;-64
2024/03/16 11:59:08;;;;;;;0.30;0.30;;;16.90;99.90;;;;;;4897818;29;20190;-64
2024/03/16 12:01:38;;;;;;;0.30;0.30;;;16.90;99.90;;;;;;4897847;29;20506;-64
2024/03/16 12:04:06;;;;;;;0.30;0.30;;;16.90;99.90;;;;;;4897657;29;20422;-64
2024/03/16 12:06:33;;;;;;;0.30;0.30;;;17.00;99.90;;;;;;4897072;29;20847;-65
2024/03/16 12:08:59;;;;;;;0.37;0.37;;;17.00;99.90;;;;;;4897996;29;20802;-70
2024/03/16 12:11:25;;;;;;;0.30;0.20;;;17.00;99.90;;;;;;4897766;29;20576;-66
2024/03/16 12:14:10;;;;;;;0.30;0.30;;;16.90;99.90;;;;;;4897653;29;20422;-66
2024/03/16 12:16:37;;;;;;;0.30;0.30;;;16.70;99.90;;;;;;4897415;29;20190;-68
2024/03/16 12:19:03;;;;;;;0.30;0.30;;;16.60;99.90;;;;;;4897602;29;20450;-68
2024/03/16 12:21:29;;;;;;;0.30;0.30;;;16.50;99.90;;;;;;4897671;29;20933;-67
2024/03/16 12:23:56;;;;;;;1.47;1.13;;;16.50;99.90;;;;;;4897447;29;20593;-66
2024/03/16 12:26:28;;;;;;;0.30;0.20;;;16.40;99.90;;;;;;4897348;29;20417;-69
2024/03/16 12:29:07;;;;;;;0.30;0.20;;;16.20;99.90;;;;;;4897534;29;20443;-65
2024/03/16 12:31:33;;;;;;;0.30;0.30;;;16.10;99.90;;;;;;4897392;29;20509;-67
2024/03/16 12:33:59;;;;;;;0.30;0.30;;;16.10;99.90;;;;;;4897615;29;20411;-70
2024/03/16 12:36:24;;;;;;;0.30;0.30;;;16.10;99.90;;;;;;4897378;29;20190;-68
2024/03/16 12:38:50;;;;;;;0.30;0.30;;;16.10;99.90;;;;;;4900961;29;20446;-69
2024/03/16 12:41:16;;;;;;;0.30;0.30;;;16.00;99.90;;;;;;4901417;29;20167;-68
2024/03/16 12:43:41;;;;;;;0.30;0.20;;;16.10;99.90;;;;;;4901225;29;20261;-66
2024/03/16 12:46:07;;;;;;;0.37;0.37;;;16.10;99.90;;;;;;4900641;29;20658;-68
2024/03/16 12:48:33;;;;;;;0.30;0.30;;;16.20;99.90;;;;;;4901334;29;20549;-67
2024/03/16 12:50:59;;;;;;;0.30;0.30;;;16.30;99.90;;;;;;4901323;29;20404;-67
2024/03/16 12:53:24;;;;;;;0.33;0.33;;;16.40;99.90;;;;;;4901098;29;20171;-69
2024/03/16 12:55:50;;;;;;;0.30;0.30;;;16.50;99.90;;;;;;4900580;29;20203;-68
2024/03/16 12:58:15;;;;;;;0.30;0.30;;;16.50;99.90;;;;;;4900373;29;20249;-68
2024/03/16 13:00:42;;;;;;;0.30;0.30;;;16.40;99.90;;;;;;4901012;29;20235;-67
2024/03/16 13:03:08;;;;;;;0.30;0.30;;;16.40;99.90;;;;;;4900660;29;20635;-69
2024/03/16 13:05:33;;;;;;;0.30;0.30;;;16.40;99.90;;;;;;4899209;29;20480;-69
2024/03/16 13:08:00;;;;;;;0.30;0.30;;;16.40;99.90;;;;;;4900493;29;20534;-68
2024/03/16 13:10:27;;;;;;;0.30;0.30;;;16.30;99.90;;;;;;4915119;29;20239;-69
2024/03/16 13:12:53;;;;;;;0.30;0.30;;;16.20;99.90;;;;;;4910739;29;20443;-68
2024/03/16 13:15:18;;;;;;;0.30;0.30;;;16.10;99.90;;;;;;4899809;29;20423;-68
2024/03/16 13:17:46;;;;;;;0.30;0.30;;;16.10;99.90;;;;;;4900379;29;20175;-67
2024/03/16 13:20:17;;;;;;;0.30;0.30;;;16.00;99.90;;;;;;4900651;29;20181;-68
2024/03/16 13:22:42;;;;;;;0.50;0.43;;;15.90;99.90;;;;;;4912230;29;20525;-69
2024/03/16 13:25:08;;;;;;;0.30;0.30;;;15.90;99.90;;;;;;4917868;29;20516;-67
2024/03/16 13:27:34;;;;;;;0.30;0.30;;;15.90;99.90;;;;;;4904249;29;20232;-67
2024/03/16 13:29:59;;;;;;;0.30;0.30;;;16.00;99.90;;;;;;4900244;29;20204;-69
2024/03/16 13:32:25;;;;;;;0.30;0.20;;;16.10;99.90;;;;;;4900438;29;20206;-68
2024/03/16 13:34:51;;;;;;;0.30;0.30;;;16.10;99.90;;;;;;4898499;29;20185;-66
2024/03/16 13:37:17;;;;;;;0.30;0.30;;;16.10;99.90;;;;;;4900543;29;20665;-67
2024/03/16 13:39:44;;;;;;;0.30;0.30;;;16.10;99.90;;;;;;4900370;29;20457;-67
2024/03/16 13:42:12;;;;;;;0.93;0.40;;;16.10;99.90;;;;;;4901196;29;20197;-66
2024/03/16 13:44:40;;;;;;;0.30;0.20;;;16.10;99.90;;;;;;4906036;29;20424;-66
2024/03/16 13:47:06;;;;;;;0.30;0.30;;;16.10;99.90;;;;;;4901510;29;20456;-69
2024/03/16 13:49:34;;;;;;;0.30;0.30;;;16.10;99.90;;;;;;4904120;29;20811;-66
2024/03/16 13:52:00;;;;;;;0.30;0.30;;;16.10;99.90;;;;;;4918348;29;20209;-70
2024/03/16 13:54:26;;;;;;;0.30;0.30;;;16.00;99.90;;;;;;4917821;29;20413;-69
2024/03/16 13:56:51;;;;;;;0.30;0.30;;;16.00;99.90;;;;;;4918250;29;20198;-69
2024/03/16 13:59:17;;;;;;;0.43;0.43;;;16.00;99.90;;;;;;4918677;29;20172;-70
2024/03/16 14:01:43;;;;;;;0.30;0.30;;;16.00;99.90;;;;;;4918688;29;20217;-70
2024/03/16 14:04:09;;;;;;;0.30;0.30;;;16.00;99.90;;;;;;4918548;29;20290;-67
2024/03/16 14:06:34;;;;;;;0.30;0.30;;;15.90;99.90;;;;;;4917860;29;20441;-68
2024/03/16 14:09:06;;;;;;;0.30;0.30;;;16.00;99.90;;;;;;4918126;29;20198;-68
2024/03/16 14:11:33;;;;;;;0.30;0.30;;;16.10;99.90;;;;;;4918621;29;20265;-70
2024/03/16 14:13:58;;;;;;;0.30;0.20;;;16.20;99.90;;;;;;4918529;29;20504;-69
2024/03/16 14:16:24;;;;;;;0.30;0.30;;;16.30;99.90;;;;;;4918126;29;20568;-70
2024/03/16 14:18:49;;;;;;;0.30;0.30;;;16.40;99.90;;;;;;4918414;29;20175;-68
2024/03/16 14:21:16;;;;;;;0.30;0.30;;;16.40;99.90;;;;;;4918651;29;20178;-66
2024/03/16 14:23:41;;;;;;;0.30;0.30;;;16.50;99.90;;;;;;4916418;29;20185;-67
2024/03/16 14:26:07;;;;;;;0.30;0.30;;;16.50;99.90;;;;;;4898980;29;20446;-69
2024/03/16 14:28:33;;;;;;;0.30;0.30;;;16.40;99.90;;;;;;4899523;29;20214;-67
2024/03/16 14:30:59;;;;;;;0.50;0.50;;;16.30;99.90;;;;;;4899392;29;20166;-67
2024/03/16 14:33:25;;;;;;;0.30;0.30;;;16.10;99.90;;;;;;4911306;29;20470;-69
2024/03/16 14:35:53;;;;;;;0.30;0.30;;;16.00;99.90;;;;;;4917867;29;20828;-67
2024/03/16 14:38:19;;;;;;;0.30;0.30;;;15.80;99.90;;;;;;4918005;29;20525;-68
2024/03/16 14:40:45;;;;;;;0.30;0.30;;;15.80;99.90;;;;;;4907751;29;20443;-67
2024/03/16 14:43:10;;;;;;;0.30;0.30;;;15.90;99.90;;;;;;4899147;29;20477;-69
2024/03/16 14:45:36;;;;;;;0.30;0.30;;;15.80;99.90;;;;;;4899055;29;20198;-68
2024/03/16 14:48:02;;;;;;;0.70;0.50;;;15.80;99.90;;;;;;4899355;29;20177;-68
2024/03/16 14:50:28;;;;;;;0.30;0.30;;;15.80;99.90;;;;;;4898969;29;20184;-69
2024/03/16 14:52:59;;;;;;;0.90;0.83;;;15.70;99.90;;;;;;4899013;29;20543;-68
2024/03/16 14:55:25;;;;;;;0.40;0.40;;;15.60;99.90;;;;;;4898995;29;20408;-68
2024/03/16 14:57:51;;;;;;;0.30;0.30;;;15.40;99.90;;;;;;4898904;29;20402;-68
2024/03/16 15:00:17;;;;;;;0.30;0.30;;;15.30;99.90;;;;;;4899086;29;20398;-66
2024/03/16 15:02:43;;;;;;;0.30;0.30;;;15.20;99.90;;;;;;4899104;29;20917;-66
2024/03/16 15:05:09;;;;;;;0.60;0.50;;;15.10;99.90;;;;;;4898730;29;20427;-66
2024/03/16 15:07:34;;;;;;;0.30;0.30;;;15.00;99.90;;;;;;4898752;29;20311;-68
2024/03/16 15:10:00;;;;;;;0.30;0.30;;;14.90;99.90;;;;;;4906329;29;20279;-68
2024/03/16 15:12:26;;;;;;;0.30;0.30;;;14.90;99.90;;;;;;4917141;29;20209;-68
2024/03/16 15:14:51;;;;;;;0.30;0.30;;;14.80;99.90;;;;;;4917073;29;20415;-68
2024/03/16 15:17:17;;;;;;;0.30;0.30;;;14.80;99.90;;;;;;4916427;29;20230;-69
2024/03/16 15:19:44;;;;;;;0.30;0.30;;;14.70;99.90;;;;;;4916943;29;20182;-70
2024/03/16 15:22:10;;;;;;;0.30;0.30;;;14.50;99.90;;;;;;4917157;29;20676;-67
2024/03/16 15:24:39;;;;;;;0.30;0.30;;;14.20;99.90;;;;;;4909775;29;20416;-67
2024/03/16 15:29:49;;;;;;;0.30;0.30;;;13.80;99.90;;;;;;4898651;29;20453;-68
2024/03/16 15:32:14;;;;;;;0.30;0.30;;;13.50;99.90;;;;;;4897059;29;20483;-66
2024/03/16 15:34:43;;;;;;;0.30;0.30;;;13.30;99.90;;;;;;4897907;29;20418;-65
2024/03/16 15:37:12;;;;;;;0.30;0.30;;;13.10;99.90;;;;;;4897180;29;20230;-65
2024/03/16 15:39:38;;;;;;;0.40;0.40;;;12.90;99.90;;;;;;4907251;29;20422;-64
2024/03/16 15:42:04;;;;;;;0.30;0.30;;;12.80;99.90;;;;;;4917141;29;20429;-66
2024/03/16 15:44:30;;;;;;;0.30;0.20;;;12.70;99.90;;;;;;4916818;29;20449;-67
2024/03/16 15:46:58;;;;;;;0.30;0.30;;;12.70;99.90;;;;;;4916743;29;20486;-64
2024/03/16 15:49:23;;;;;;;0.40;0.40;;;12.60;99.90;;;;;;4917078;29;20237;-64
2024/03/16 15:51:49;;;;;;;1.33;0.83;;;12.60;99.90;;;;;;4916836;29;20460;-65
2024/03/16 15:54:15;;;;;;;0.30;0.30;;;12.50;99.90;;;;;;4908488;29;20590;-64
2024/03/16 15:56:44;;;;;;;0.57;0.57;;;12.40;99.90;;;;;;4897717;29;20209;-64
2024/03/16 15:59:10;;;;;;;0.30;0.30;;;12.30;99.90;;;;;;4897616;29;20426;-64
2024/03/16 16:01:36;;;;;;;0.30;0.30;;;12.20;99.90;;;;;;4897738;29;20843;-63
2024/03/16 16:04:04;;;;;;;0.30;0.30;;;12.10;99.90;;;;;;4897697;29;20212;-62
2024/03/16 16:06:31;;;;;;;0.30;0.30;;;12.00;99.90;;;;;;4914837;29;20456;-65
2024/03/16 16:08:58;;;;;;;0.40;0.40;;;11.90;99.90;;;;;;4916059;29;20425;-62
2024/03/16 16:11:24;;;;;;;0.30;0.27;;;11.70;99.90;;;;;;4916781;29;20487;-63
2024/03/16 16:13:50;;;;;;;0.30;0.30;;;11.60;99.90;;;;;;4920391;29;20507;-64
2024/03/16 16:16:15;;;;;;;0.30;0.30;;;11.50;99.90;;;;;;4920141;29;20207;-65
2024/03/16 16:18:41;;;;;;;0.33;0.33;;;11.40;99.90;;;;;;4920494;29;20177;-64
2024/03/16 16:21:09;;;;;;;0.30;0.30;;;11.30;99.90;;;;;;4920588;29;20650;-64
2024/03/16 16:23:35;;;;;;;0.30;0.30;;;11.30;99.90;;;;;;4913051;29;20186;-63
2024/03/16 16:26:01;;;;;;;0.30;0.30;;;11.30;99.90;;;;;;4901421;29;20435;-64
2024/03/16 16:28:26;;;;;;;0.30;0.30;;;11.30;99.90;;;;;;4901668;29;20249;-64
2024/03/16 16:30:52;;;;;;;0.30;0.30;;;11.30;99.90;;;;;;4906249;29;20177;-63
2024/03/16 16:33:20;;;;;;;0.30;0.27;;;11.20;99.90;;;;;;4910291;29;20197;-63
2024/03/16 16:35:49;;;;;;;0.30;0.30;;;11.30;99.90;;;;;;4910056;29;20738;-63
2024/03/16 16:38:15;;;;;;;0.30;0.30;;;11.20;99.90;;;;;;4911207;29;20423;-63
2024/03/16 16:40:43;;;;;;;0.30;0.20;;;11.20;99.90;;;;;;4907040;29;20473;-62
2024/03/16 16:43:08;;;;;;;0.40;0.40;;;11.20;99.90;;;;;;4910281;29;20429;-62
2024/03/16 16:45:34;;;;;;;0.30;0.30;;;11.20;99.90;;;;;;4909828;29;20452;-64
2024/03/16 16:48:00;;;;;;;0.30;0.30;;;11.20;99.90;;;;;;4908960;29;20190;-64
2024/03/16 16:50:25;;;;;;;0.30;0.30;;;11.10;99.90;;;;;;4910486;29;20266;-63
2024/03/16 16:52:51;;;;;;;0.80;0.57;;;11.10;99.90;;;;;;4910459;29;20472;-63
2024/03/16 16:55:17;;;;;;;0.33;0.33;;;11.00;99.90;;;;;;4908583;29;20237;-63
2024/03/16 16:57:42;;;;;;;0.30;0.30;;;11.00;99.90;;;;;;4919059;29;20187;-65
2024/03/16 17:00:11;;;;;;;0.30;0.30;;;10.90;99.90;;;;;;4908828;29;20188;-64
2024/03/16 17:02:40;;;;;;;0.40;0.40;;;10.90;99.90;;;;;;4911283;29;20190;-64
2024/03/16 17:05:06;;;;;;;0.47;0.47;;;10.80;99.90;;;;;;4908807;29;20477;-64
2024/03/16 17:07:34;;;;;;;0.40;0.40;;;10.80;99.90;;;;;;4909479;29;20451;-65
2024/03/16 17:10:08;;;;;;;0.30;0.30;;;10.80;99.90;;;;;;4910446;29;20953;-66
2024/03/16 17:12:34;;;;;;;0.30;0.30;;;10.70;99.90;;;;;;4909759;29;20449;-66
2024/03/16 17:15:00;;;;;;;0.37;0.37;;;10.70;99.90;;;;;;4908036;29;20419;-65
2024/03/16 17:17:27;;;;;;;0.30;0.30;;;10.70;99.90;;;;;;4910334;29;20432;-66
2024/03/16 17:19:54;;;;;;;0.30;0.20;;;10.70;99.90;;;;;;4909681;29;20704;-61
2024/03/16 17:22:20;;;;;;;0.30;0.30;;;10.70;99.90;;;;;;4908363;29;20203;-64
2024/03/16 17:24:46;;;;;;;0.30;0.30;;;10.70;99.90;;;;;;4908505;29;20478;-61
2024/03/16 17:27:11;;;;;;;0.40;0.40;;;10.70;99.90;;;;;;4900244;29;20446;-65
2024/03/16 17:29:37;;;;;;;0.40;0.40;;;10.70;99.90;;;;;;4900369;29;20274;-66
2024/03/16 17:32:06;;;;;;;0.30;0.30;;;10.70;99.90;;;;;;4900563;29;20208;-62
2024/03/16 17:34:32;;;;;;;0.33;0.33;;;10.70;99.90;;;;;;4900457;29;20195;-62
2024/03/16 17:36:58;;;;;;;0.32;0.32;;;10.70;99.90;;;;;;4900343;29;20444;-62
2024/03/16 17:39:23;;;;;;;0.30;0.30;;;10.70;99.90;;;;;;4898863;29;20185;-62
2024/03/16 17:41:49;;;;;;;0.30;0.30;;;10.70;99.90;;;;;;4900331;29;20195;-62
2024/03/16 17:44:15;;;;;;;0.30;0.30;;;10.70;99.90;;;;;;4899932;29;20190;-63
2024/03/16 17:46:41;;;;;;;0.30;0.30;;;10.70;99.90;;;;;;4898063;29;20557;-61
2024/03/16 17:49:06;;;;;;;0.30;0.30;;;10.80;99.90;;;;;;4900144;29;20176;-63
2024/03/16 17:51:33;;;;;;;0.30;0.30;;;10.70;99.90;;;;;;4899732;29;20220;-65
2024/03/16 17:53:59;;;;;;;0.40;0.40;;;10.70;99.90;;;;;;4899832;29;20440;-66